Time;durP1;ratioP1;P1;durP2;ratioP2;P2;SDS_P1;SDS_P2;PMS_P1;PMS_P2;Temp;Humidity;BMP_temperature;BMP_pressure;BME280_temperature;BME280_humidity;BME280_pressure;Samples;Min_cycle;Max_cycle;Signal;HPM_P1;HPM_P2
2022/05/21 00:01:58;;;;;;;2.35;2.15;;;;;;;22.29;49.62;93520.44;4911320;29;20036;-93
2022/05/21 00:04:25;;;;;;;3.75;2.60;;;;;;;22.26;49.94;93515.25;4911053;29;20035;-87
2022/05/21 00:06:50;;;;;;;2.63;2.15;;;;;;;22.26;49.76;93512.50;4911880;29;20047;-88
2022/05/21 00:09:18;;;;;;;4.43;2.58;;;;;;;22.28;49.50;93496.19;4926651;29;20043;-87
2022/05/21 00:11:44;;;;;;;2.50;2.30;;;;;;;22.27;49.93;93511.97;4924380;29;20540;-88
2022/05/21 00:14:09;;;;;;;2.67;2.30;;;;;;;22.26;49.61;93507.72;4921684;29;20040;-87
2022/05/21 00:16:35;;;;;;;2.50;2.00;;;;;;;22.25;49.63;93489.72;4904852;29;20040;-88
2022/05/21 00:19:00;;;;;;;4.45;2.55;;;;;;;22.26;49.76;93496.72;4924036;29;20044;-87
2022/05/21 00:21:26;;;;;;;2.20;2.00;;;;;;;22.26;49.71;93491.22;4931848;28;20046;-87
2022/05/21 00:23:51;;;;;;;2.25;1.80;;;;;;;22.26;49.43;93493.22;4926991;29;20493;-87
2022/05/21 00:26:17;;;;;;;2.90;2.30;;;;;;;22.25;49.62;93489.00;4928326;29;20051;-88
2022/05/21 00:28:44;;;;;;;2.78;2.03;;;;;;;22.26;49.69;93493.22;4957958;28;20073;-86
2022/05/21 00:31:10;;;;;;;2.67;2.03;;;;;;;22.23;50.23;93498.53;5022458;28;20092;-86
2022/05/21 00:33:36;;;;;;;3.40;2.50;;;;;;;22.23;50.16;93506.78;5005102;28;20326;-89
2022/05/21 00:36:02;;;;;;;2.80;2.40;;;;;;;22.21;50.33;93497.56;5019758;28;20116;-88
2022/05/21 00:38:27;;;;;;;2.28;1.92;;;;;;;22.23;50.07;93500.53;5022931;28;20036;-88
2022/05/21 00:40:54;;;;;;;7.43;2.47;;;;;;;22.24;50.29;93513.03;5003040;28;20503;-88
2022/05/21 00:43:40;;;;;;;5.15;2.53;;;;;;;22.20;50.54;93521.63;5048475;28;20042;-89
2022/05/21 00:46:08;;;;;;;2.60;2.00;;;;;;;22.21;50.42;93527.88;5039990;28;20038;-90
2022/05/21 00:48:34;;;;;;;2.40;2.20;;;;;;;22.21;50.46;93547.13;5055989;28;20049;-87
2022/05/21 00:51:00;;;;;;;2.97;2.63;;;;;;;22.21;50.59;93547.88;5020892;28;20644;-87
2022/05/21 00:53:26;;;;;;;2.63;2.42;;;;;;;22.21;50.20;93536.13;5036287;28;20030;-89
2022/05/21 00:55:54;;;;;;;3.28;2.95;;;;;;;22.19;51.09;93503.63;5058350;28;20048;-89
2022/05/21 01:01:07;;;;;;;2.65;2.25;;;;;;;22.19;50.87;93492.59;5007498;28;20110;-88
2022/05/21 01:03:32;;;;;;;3.38;2.60;;;;;;;22.19;50.50;93503.63;5031580;23;20111;-88
2022/05/21 01:06:03;;;;;;;2.97;2.55;;;;;;;22.18;50.57;93504.88;5035654;28;20029;-89
2022/05/21 01:08:28;;;;;;;3.38;2.97;;;;;;;22.20;50.49;93498.84;5053798;23;20065;-89
2022/05/21 01:10:58;;;;;;;2.92;2.50;;;;;;;22.20;50.51;93504.34;5017144;28;20084;-88
2022/05/21 01:13:25;;;;;;;3.47;3.15;;;;;;;22.18;50.68;93499.38;5031699;28;20041;-90
2022/05/21 01:15:57;;;;;;;2.90;2.60;;;;;;;22.18;50.38;93518.66;5048405;28;20037;-90
2022/05/21 01:18:22;;;;;;;3.25;2.80;;;;;;;22.17;51.19;93525.44;5008001;28;20121;-87
2022/05/21 01:20:49;;;;;;;4.10;2.83;;;;;;;22.18;50.53;93531.69;4981827;28;20021;-88
2022/05/21 01:23:15;;;;;;;2.80;2.50;;;;;;;22.16;50.39;93537.72;5032886;23;20147;-87
2022/05/21 01:25:41;;;;;;;3.28;2.80;;;;;;;22.14;50.49;93526.50;5035833;28;20064;-87
2022/05/21 01:28:29;;;;;;;3.10;2.63;;;;;;;22.18;50.57;93568.22;5054613;28;20132;-89
2022/05/21 01:30:57;;;;;;;2.72;2.47;;;;;;;22.18;50.53;93564.72;5071648;28;20507;-88
2022/05/21 01:33:31;;;;;;;3.63;2.92;;;;;;;22.17;50.66;93569.50;5030400;28;20037;-88
2022/05/21 01:36:21;;;;;;;2.95;2.58;;;;;;;22.14;50.38;93573.31;5071750;28;20044;-88
2022/05/21 01:38:48;;;;;;;3.22;2.72;;;;;;;22.15;50.89;93574.78;5070259;28;20062;-89
2022/05/21 01:41:13;;;;;;;3.35;2.80;;;;;;;22.17;50.31;93566.00;5052357;28;20037;-87
2022/05/21 01:46:25;;;;;;;3.40;2.78;;;;;;;22.16;50.45;93557.00;5055770;28;20051;-87
2022/05/21 01:48:53;;;;;;;2.97;2.60;;;;;;;22.13;50.19;93571.06;5070315;28;20095;-89
2022/05/21 01:51:18;;;;;;;3.17;2.65;;;;;;;22.14;50.41;93561.53;5031130;28;20128;-87
2022/05/21 01:53:44;;;;;;;2.92;2.63;;;;;;;22.13;50.56;93560.81;5050214;28;20508;-88
2022/05/21 01:56:10;;;;;;;3.60;2.90;;;;;;;22.14;50.20;93556.78;5047059;28;20033;-87
2022/05/21 01:58:38;;;;;;;2.78;2.55;;;;;;;22.14;50.58;93545.03;5040918;28;20037;-88
2022/05/21 02:01:05;;;;;;;2.53;2.33;;;;;;;22.14;50.67;93550.53;4994672;28;20053;-87
2022/05/21 02:03:32;;;;;;;3.40;2.55;;;;;;;22.13;50.94;93543.53;4975509;28;20042;-89
2022/05/21 02:05:58;;;;;;;3.15;2.85;;;;;;;22.14;50.76;93536.75;4968533;28;20046;-88
2022/05/21 02:08:24;;;;;;;3.38;2.90;;;;;;;22.14;50.21;93523.75;4968128;28;20046;-89
2022/05/21 02:10:51;;;;;;;2.45;2.25;;;;;;;22.14;50.92;93540.25;4971904;28;20042;-88
2022/05/21 02:13:39;;;;;;;4.30;2.60;;;;;;;22.13;50.94;93538.03;5025800;23;20041;-88
2022/05/21 02:16:06;;;;;;;3.55;2.75;;;;;;;22.12;50.58;93550.31;5050586;28;20037;-88
2022/05/21 02:18:31;;;;;;;2.85;2.45;;;;;;;22.14;50.76;93547.78;5004241;28;20018;-87
2022/05/21 02:20:57;;;;;;;2.60;2.15;;;;;;;22.10;50.59;93550.09;5008575;28;20042;-88
2022/05/21 02:23:23;;;;;;;4.20;2.40;;;;;;;22.11;50.54;93554.34;4975091;28;20034;-86
2022/05/21 02:25:48;;;;;;;3.72;2.90;;;;;;;22.11;50.61;93546.81;4985333;28;20039;-88
2022/05/21 02:28:14;;;;;;;2.83;2.53;;;;;;;22.10;50.46;93559.09;4970822;28;20039;-87
2022/05/21 02:30:40;;;;;;;3.22;2.78;;;;;;;22.10;50.60;93556.34;4961881;28;20088;-87
2022/05/21 02:33:21;;;;;;;2.85;2.33;;;;;;;22.08;50.66;93545.16;4975245;28;20580;-87
2022/05/21 02:35:47;;;;;;;2.70;2.30;;;;;;;22.12;50.47;93553.06;4989440;28;20049;-87
2022/05/21 02:40:57;;;;;;;3.22;2.40;;;;;;;22.11;50.50;93565.34;4988809;28;20080;-87
2022/05/21 02:43:22;;;;;;;2.75;2.40;;;;;;;22.08;50.88;93572.69;4964801;28;20392;-87
2022/05/21 02:45:50;;;;;;;2.53;2.30;;;;;;;22.11;50.72;93579.13;4965465;28;20150;-88
2022/05/21 02:48:15;;;;;;;3.05;2.75;;;;;;;22.09;50.46;93567.91;4928646;29;20123;-89
2022/05/21 02:50:41;;;;;;;2.88;2.63;;;;;;;22.10;50.86;93572.13;4964521;28;20035;-87
2022/05/21 02:53:08;;;;;;;2.50;1.98;;;;;;;22.09;50.51;93571.41;4948076;28;20054;-87
2022/05/21 02:55:33;;;;;;;2.80;2.50;;;;;;;22.08;50.76;93550.66;4962480;28;20173;-88
2022/05/21 02:57:59;;;;;;;3.17;2.83;;;;;;;22.06;50.56;93566.97;4998289;28;20074;-91
2022/05/21 03:00:28;;;;;;;3.03;2.72;;;;;;;22.06;50.87;93571.75;4981784;28;20433;-92
2022/05/21 03:02:54;;;;;;;3.75;2.63;;;;;;;22.07;50.51;93578.72;4979772;28;20039;-92
2022/05/21 03:05:20;;;;;;;3.38;2.83;;;;;;;22.08;50.43;93580.22;4962866;28;20051;-90
2022/05/21 03:07:47;;;;;;;3.38;2.65;;;;;;;22.05;50.62;93582.00;4946927;28;20078;-87
2022/05/21 03:10:22;;;;;;;2.75;2.22;;;;;;;22.05;50.47;93575.75;4945269;28;20038;-88
2022/05/21 03:12:58;;;;;;;2.53;2.28;;;;;;;22.04;50.85;93585.28;4961609;28;20097;-89
2022/05/21 03:15:33;;;;;;;3.58;2.17;;;;;;;22.05;50.77;93578.50;4931985;28;20045;-86
2022/05/21 03:18:02;;;;;;;4.32;3.13;;;;;;;22.06;50.72;93582.75;4946034;28;20473;-91
2022/05/21 03:20:28;;;;;;;3.65;2.80;;;;;;;22.05;50.57;93586.78;4979866;28;20046;-87
2022/05/21 03:22:53;;;;;;;3.25;2.95;;;;;;;22.02;50.79;93585.81;4964523;28;20038;-87
2022/05/21 03:25:19;;;;;;;4.32;2.83;;;;;;;22.04;51.06;93612.81;4968470;28;20040;-87
2022/05/21 03:27:45;;;;;;;3.45;2.28;;;;;;;22.03;50.66;93605.84;5012173;28;20040;-91
2022/05/21 03:30:15;;;;;;;2.72;2.20;;;;;;;22.03;50.63;93609.31;5038706;28;20029;-88
2022/05/21 03:32:41;;;;;;;3.83;2.67;;;;;;;22.03;50.78;93609.31;4996742;28;20053;-93
2022/05/21 03:35:08;;;;;;;2.92;2.63;;;;;;;22.03;50.70;93601.06;4958476;28;20674;-88
2022/05/21 03:37:33;;;;;;;3.20;2.67;;;;;;;22.04;50.70;93612.81;4958050;28;20438;-88
2022/05/21 03:39:59;;;;;;;2.45;2.25;;;;;;;22.03;50.83;93620.34;4957561;28;20053;-86
2022/05/21 03:42:25;;;;;;;2.85;2.58;;;;;;;22.04;50.49;93637.59;4957428;28;20450;-94
2022/05/21 03:44:51;;;;;;;2.45;2.25;;;;;;;22.03;50.70;93647.88;4955855;28;20046;-90
2022/05/21 03:47:16;;;;;;;3.38;2.45;;;;;;;22.02;50.84;93649.13;4955559;28;20055;-86
2022/05/21 03:49:42;;;;;;;3.13;2.42;;;;;;;22.02;50.89;93651.16;4973271;28;20058;-89
2022/05/21 03:52:07;;;;;;;3.78;2.65;;;;;;;22.03;50.72;93647.88;4956798;28;20173;-89
2022/05/21 03:54:33;;;;;;;3.38;2.90;;;;;;;22.03;50.84;93647.13;4956913;28;20097;-86
2022/05/21 03:56:59;;;;;;;3.97;2.53;;;;;;;22.02;50.82;93662.91;4957672;28;20580;-87
2022/05/21 03:59:24;;;;;;;3.40;2.90;;;;;;;22.03;50.34;93655.38;4972871;28;20102;-93
2022/05/21 04:01:50;;;;;;;3.95;2.75;;;;;;;22.02;50.66;93662.91;4989436;28;20081;-87
2022/05/21 04:04:15;;;;;;;3.45;2.97;;;;;;;22.02;50.48;93660.16;5001573;28;20034;-93
2022/05/21 04:06:41;;;;;;;3.42;3.00;;;;;;;22.02;50.86;93664.91;4992671;28;20507;-92
2022/05/21 04:09:06;;;;;;;3.35;2.78;;;;;;;22.00;50.73;93657.19;5012397;28;20117;-93
2022/05/21 04:11:32;;;;;;;2.70;2.40;;;;;;;22.03;50.78;93652.63;5013391;28;20025;-89
2022/05/21 04:13:57;;;;;;;3.53;2.80;;;;;;;22.02;50.30;93651.16;5012389;28;20056;-87
2022/05/21 04:16:23;;;;;;;3.47;2.95;;;;;;;22.02;50.76;93651.16;5012485;28;20111;-93
2022/05/21 04:18:48;;;;;;;3.55;2.40;;;;;;;22.00;50.65;93656.41;5012074;28;20033;-92
2022/05/21 04:21:13;;;;;;;2.90;2.50;;;;;;;22.01;50.79;93658.66;4995524;28;20044;-89
2022/05/21 04:23:39;;;;;;;3.05;2.40;;;;;;;22.01;50.56;93657.91;5012770;28;20030;-89
2022/05/21 04:26:04;;;;;;;2.78;2.38;;;;;;;22.02;50.53;93659.41;5009969;28;20071;-89
2022/05/21 04:28:30;;;;;;;3.35;2.72;;;;;;;22.02;50.99;93659.41;5048572;28;20725;-87
2022/05/21 04:30:55;;;;;;;3.35;2.75;;;;;;;22.02;50.95;93651.16;5029375;28;20377;-93
2022/05/21 04:33:21;;;;;;;2.85;2.50;;;;;;;22.03;50.90;93655.38;5027949;28;20041;-87
2022/05/21 04:38:34;;;;;;;2.35;2.15;;;;;;;22.05;50.64;93658.34;5041360;28;20088;-86
2022/05/21 04:40:59;;;;;;;3.25;2.42;;;;;;;22.06;50.80;93663.34;5011461;28;20033;-86
2022/05/21 04:43:25;;;;;;;3.45;2.17;;;;;;;22.09;50.53;93661.50;5010335;28;20056;-87
2022/05/21 04:45:50;;;;;;;4.20;2.30;;;;;;;22.07;50.92;93667.56;5009667;28;20049;-89
2022/05/21 04:48:16;;;;;;;3.38;2.50;;;;;;;22.13;50.48;93672.94;5026676;28;20053;-89
2022/05/21 04:50:42;;;;;;;2.72;1.98;;;;;;;22.10;50.87;93674.75;5011101;28;20083;-88
2022/05/21 04:53:07;;;;;;;1.90;1.70;;;;;;;22.09;50.51;93673.25;4994121;28;20049;-91
2022/05/21 04:55:33;;;;;;;3.00;2.25;;;;;;;22.11;50.46;93694.75;5010913;28;20032;-93
2022/05/21 04:57:58;;;;;;;2.25;1.77;;;;;;;22.11;50.33;93687.25;5010667;28;20041;-86
2022/05/21 05:00:24;;;;;;;2.28;2.00;;;;;;;22.12;50.34;93680.47;5010583;28;20038;-87
2022/05/21 05:02:49;;;;;;;3.00;2.65;;;;;;;22.13;50.63;93681.94;5011806;28;20376;-87
2022/05/21 05:05:15;;;;;;;2.53;2.05;;;;;;;22.12;50.34;93682.47;4995222;28;20033;-86
2022/05/21 05:07:40;;;;;;;2.38;2.17;;;;;;;22.15;50.45;93684.91;4994692;28;20508;-89
2022/05/21 05:10:07;;;;;;;2.35;2.13;;;;;;;22.17;50.26;93678.88;5011960;28;20217;-88
2022/05/21 05:12:32;;;;;;;3.28;2.33;;;;;;;22.17;50.36;93693.41;4994725;28;20037;-89
2022/05/21 05:14:58;;;;;;;2.92;1.75;;;;;;;22.17;49.99;93687.16;5012177;28;20120;-90
2022/05/21 05:17:24;;;;;;;2.70;2.20;;;;;;;22.23;50.10;93682.28;5012929;28;20199;-92
2022/05/21 05:19:55;;;;;;;3.58;1.70;;;;;;;22.23;49.92;93683.03;5011897;28;20042;-87
2022/05/21 05:22:21;;;;;;;17.23;11.27;;;;;;;22.21;49.96;93680.06;5015185;28;20036;-87
2022/05/21 05:24:47;;;;;;;8.77;5.43;;;;;;;22.23;49.94;93685.03;5015575;28;20041;-86
2022/05/21 05:27:12;;;;;;;9.50;8.60;;;;;;;22.23;50.04;93683.03;5031946;28;20407;-87
2022/05/21 05:29:38;;;;;;;6.97;4.75;;;;;;;22.25;49.87;93688.00;5032412;28;20444;-91
2022/05/21 05:32:04;;;;;;;2.90;2.60;;;;;;;22.24;50.09;93683.78;5051994;28;20037;-89
2022/05/21 05:34:30;;;;;;;2.65;2.45;;;;;;;22.28;49.81;93691.72;5052615;28;20518;-86
2022/05/21 05:36:55;;;;;;;3.15;2.30;;;;;;;22.28;50.26;93691.72;5035205;28;20056;-86
2022/05/21 05:39:21;;;;;;;3.28;2.88;;;;;;;22.29;50.43;93695.97;5035825;28;20029;-92
2022/05/21 05:41:47;;;;;;;2.70;2.38;;;;;;;22.31;49.85;93682.38;5036159;28;20125;-85
2022/05/21 05:44:12;;;;;;;2.88;2.60;;;;;;;22.32;49.92;93692.88;5022968;28;20307;-90
2022/05/21 05:46:38;;;;;;;3.17;2.63;;;;;;;22.33;49.80;93694.34;5016670;28;20083;-88
2022/05/21 05:49:04;;;;;;;2.35;2.10;;;;;;;22.35;49.76;93685.56;5032767;28;20038;-85
2022/05/21 05:51:30;;;;;;;2.35;2.00;;;;;;;22.34;49.87;93675.81;5015549;28;20539;-85
2022/05/21 05:53:55;;;;;;;2.17;1.98;;;;;;;22.37;49.83;93696.78;5015311;28;20049;-89
2022/05/21 05:56:21;;;;;;;4.63;2.17;;;;;;;22.39;49.30;93677.72;5015049;28;20095;-86
2022/05/21 06:01:30;;;;;;;2.63;2.17;;;;;;;22.41;49.90;93695.19;4998475;28;20045;-86
2022/05/21 06:03:56;;;;;;;2.88;2.47;;;;;;;22.43;49.18;93695.41;4980164;28;20034;-90
2022/05/21 06:06:21;;;;;;;2.95;1.90;;;;;;;22.43;49.76;93691.91;5011467;28;20038;-88
2022/05/21 06:08:47;;;;;;;2.83;2.17;;;;;;;22.44;49.50;93687.91;4980328;28;20101;-90
2022/05/21 06:11:13;;;;;;;3.25;2.50;;;;;;;22.45;49.82;93692.13;4996038;28;20046;-87
2022/05/21 06:13:39;;;;;;;2.28;2.08;;;;;;;22.46;49.59;93686.09;4980642;28;20038;-86
2022/05/21 06:16:05;;;;;;;2.67;1.98;;;;;;;22.48;49.25;93700.09;4983777;28;20042;-88
2022/05/21 06:18:30;;;;;;;2.10;1.70;;;;;;;22.50;49.42;93696.81;5011872;28;20034;-86
2022/05/21 06:21:00;;;;;;;2.33;1.83;;;;;;;22.50;49.43;93694.78;5011367;28;20038;-88
2022/05/21 06:23:26;;;;;;;2.67;2.38;;;;;;;22.50;49.65;93705.81;5013518;28;20038;-90
2022/05/21 06:25:51;;;;;;;2.47;2.20;;;;;;;22.52;49.54;93700.47;5011961;28;20066;-88
2022/05/21 06:28:17;;;;;;;2.15;1.83;;;;;;;22.51;49.47;93701.78;4994972;28;20062;-85
2022/05/21 06:30:43;;;;;;;1.90;1.70;;;;;;;22.55;49.31;93702.19;4999328;28;20030;-91
2022/05/21 06:33:24;;;;;;;2.72;2.25;;;;;;;22.53;49.08;93704.72;5016286;28;20046;-92
2022/05/21 06:36:01;;;;;;;2.23;2.00;;;;;;;22.54;49.60;93708.97;5016962;28;20120;-92
2022/05/21 06:38:26;;;;;;;2.65;2.20;;;;;;;22.58;49.26;93705.88;5015367;28;20034;-86
2022/05/21 06:40:52;;;;;;;2.35;1.92;;;;;;;22.60;49.29;93710.88;5002456;28;20064;-85
2022/05/21 06:43:20;;;;;;;2.40;2.13;;;;;;;22.57;49.38;93715.44;5018674;28;20041;-87
2022/05/21 06:45:45;;;;;;;2.88;2.25;;;;;;;22.60;49.07;93714.38;5023143;28;20046;-95
2022/05/21 06:48:11;;;;;;;4.88;2.40;;;;;;;22.58;48.99;93712.16;4992056;28;20049;-94
2022/05/21 06:50:37;;;;;;;2.63;2.20;;;;;;;22.58;49.01;93709.38;5005333;28;20056;-93
2022/05/21 06:53:03;;;;;;;5.10;2.60;;;;;;;22.61;49.20;93718.59;5008447;28;20041;-94
2022/05/21 06:55:28;;;;;;;3.85;2.10;;;;;;;22.64;48.84;93725.06;5024481;28;20041;-87
2022/05/21 06:57:54;;;;;;;2.90;2.15;;;;;;;22.65;48.92;93730.06;5025205;28;20117;-89
2022/05/21 07:00:24;;;;;;;2.20;1.95;;;;;;;22.65;49.07;93724.53;5009242;28;20380;-92
2022/05/21 07:02:50;;;;;;;2.05;1.75;;;;;;;22.64;49.09;93728.56;5024858;28;20034;-93
2022/05/21 07:08:02;;;;;;;2.50;1.98;;;;;;;22.64;48.81;93719.56;5025670;28;20052;-92
2022/05/21 07:10:33;;;;;;;2.38;2.17;;;;;;;22.63;49.00;93729.09;5024149;28;20093;-93
2022/05/21 07:13:02;;;;;;;2.85;2.15;;;;;;;22.67;49.00;93735.78;5023154;28;20038;-90
2022/05/21 07:15:27;;;;;;;4.25;2.05;;;;;;;22.66;49.09;93736.31;5042444;28;20089;-93
2022/05/21 07:17:57;;;;;;;2.58;2.00;;;;;;;22.66;48.91;93736.31;5024112;28;20052;-93
2022/05/21 07:20:23;;;;;;;2.45;2.20;;;;;;;22.69;48.87;93736.00;5004939;28;20033;-92
2022/05/21 07:22:48;;;;;;;2.95;2.33;;;;;;;22.69;49.17;93730.47;5026791;28;20088;-93
2022/05/21 07:25:18;;;;;;;2.28;1.60;;;;;;;22.69;49.02;93744.25;5044082;28;20117;-95
2022/05/21 07:27:43;;;;;;;2.05;1.85;;;;;;;22.70;48.75;93734.72;5060642;28;20049;-93
2022/05/21 07:30:19;;;;;;;2.67;1.60;;;;;;;22.68;49.18;93733.78;5022845;28;20042;-94
2022/05/21 07:32:44;;;;;;;3.38;2.28;;;;;;;22.70;49.07;93743.00;5024096;28;20049;-92
2022/05/21 07:35:20;;;;;;;2.00;1.80;;;;;;;22.70;49.05;93736.75;5007377;28;20037;-95
2022/05/21 07:37:46;;;;;;;2.17;1.98;;;;;;;22.71;48.79;93735.47;5024933;28;20041;-92
2022/05/21 07:40:21;;;;;;;2.95;2.65;;;;;;;22.70;48.88;93731.22;4991902;28;20034;-92
2022/05/21 07:42:48;;;;;;;3.33;2.03;;;;;;;22.69;48.78;93738.75;5006300;28;20040;-90
2022/05/21 07:45:15;;;;;;;3.42;1.88;;;;;;;22.71;48.67;93744.47;5005653;28;20087;-94
2022/05/21 07:47:47;;;;;;;3.28;2.17;;;;;;;22.70;48.76;93740.25;5024079;28;20034;-93
2022/05/21 07:50:14;;;;;;;2.28;2.08;;;;;;;22.72;48.81;93745.97;5007367;28;20086;-91
2022/05/21 07:52:40;;;;;;;3.15;2.15;;;;;;;22.69;49.03;93747.03;5012083;28;20037;-92
2022/05/21 07:55:07;;;;;;;2.00;1.75;;;;;;;22.68;49.16;93745.53;5025500;28;20041;-90
2022/05/21 07:57:32;;;;;;;2.05;1.73;;;;;;;22.70;48.93;93747.75;5026053;28;20034;-89
2022/05/21 07:59:58;;;;;;;1.92;1.73;;;;;;;22.69;48.92;93744.25;5036729;28;20068;-88
2022/05/21 08:02:25;;;;;;;2.42;2.22;;;;;;;22.68;48.81;93753.81;5022189;28;20044;-90
2022/05/21 08:04:50;;;;;;;2.28;1.95;;;;;;;22.69;49.02;93762.81;5037815;28;20045;-90
2022/05/21 08:07:18;;;;;;;3.45;2.03;;;;;;;22.66;49.02;93750.09;5036609;28;20088;-90
2022/05/21 08:09:44;;;;;;;2.63;2.28;;;;;;;22.68;48.84;93759.31;5042361;28;20045;-93
2022/05/21 08:12:14;;;;;;;2.47;2.10;;;;;;;22.67;48.84;93751.56;5042790;28;20033;-91
2022/05/21 08:14:41;;;;;;;2.50;2.03;;;;;;;22.65;48.85;93751.34;5025075;28;20064;-90
2022/05/21 08:17:07;;;;;;;2.42;2.20;;;;;;;22.65;49.04;93757.63;5029939;28;20037;-92
2022/05/21 08:19:34;;;;;;;2.42;2.05;;;;;;;22.66;48.94;93756.34;4997361;28;20064;-90
2022/05/21 08:27:27;;;;;;;3.30;2.03;;;;;;;22.66;49.23;93753.59;4997919;28;20064;-85
2022/05/21 08:29:53;;;;;;;2.03;1.83;;;;;;;22.67;48.71;93757.84;5010282;28;20101;-88
2022/05/21 08:32:18;;;;;;;2.38;1.80;;;;;;;22.66;48.80;93755.59;5009110;28;20064;-89
2022/05/21 08:34:44;;;;;;;1.88;1.67;;;;;;;22.68;48.64;93744.78;4993688;28;20125;-86
2022/05/21 08:37:09;;;;;;;2.60;2.20;;;;;;;22.66;48.82;93761.13;5010354;28;20041;-87
2022/05/21 08:39:36;;;;;;;3.28;2.58;;;;;;;22.67;48.73;93765.34;4993521;28;20045;-87
2022/05/21 08:42:17;;;;;;;2.83;2.25;;;;;;;22.66;48.75;93758.34;4993825;28;20041;-86
2022/05/21 08:44:47;;;;;;;2.95;2.15;;;;;;;22.68;48.77;93767.59;4978203;28;20563;-88
2022/05/21 08:47:27;;;;;;;3.58;2.83;;;;;;;22.65;48.98;93770.66;4995669;28;20044;-90
2022/05/21 08:50:03;;;;;;;2.33;2.13;;;;;;;22.64;49.01;93756.13;4993907;28;20108;-86
2022/05/21 08:52:37;;;;;;;3.05;2.72;;;;;;;22.67;48.83;93766.09;5005064;28;20069;-90
2022/05/21 08:55:05;;;;;;;2.58;2.38;;;;;;;22.64;48.73;93764.41;5029061;28;20109;-86
2022/05/21 08:57:38;;;;;;;3.30;2.75;;;;;;;22.66;48.55;93761.13;5006100;28;20050;-87
2022/05/21 09:00:06;;;;;;;2.85;1.85;;;;;;;22.66;48.69;93763.88;5011754;28;20073;-86
2022/05/21 09:02:34;;;;;;;2.13;1.70;;;;;;;22.66;48.53;93763.88;5027558;28;20049;-90
2022/05/21 09:05:02;;;;;;;3.28;2.30;;;;;;;22.67;48.45;93766.09;5012364;28;20049;-93
2022/05/21 09:07:38;;;;;;;3.40;2.38;;;;;;;22.68;48.56;93753.06;5014948;28;20157;-89
2022/05/21 09:10:28;;;;;;;2.50;2.30;;;;;;;22.65;48.73;93752.09;5013313;28;20042;-88
2022/05/21 09:13:09;;;;;;;2.80;2.28;;;;;;;22.64;48.65;93747.13;5021056;28;20056;-87
2022/05/21 09:18:19;;;;;;;6.82;2.60;;;;;;;22.65;48.74;93762.38;5020912;28;20503;-87
2022/05/21 09:20:53;;;;;;;2.38;1.88;;;;;;;22.62;48.76;93760.69;5000887;28;20034;-86
2022/05/21 09:23:18;;;;;;;3.97;2.63;;;;;;;22.63;48.71;93760.16;5002300;28;20030;-87
2022/05/21 09:25:44;;;;;;;2.90;2.60;;;;;;;22.63;48.84;93753.91;5017547;28;20100;-89
2022/05/21 09:28:11;;;;;;;3.63;2.45;;;;;;;22.61;49.03;93751.69;5016185;28;20059;-89
2022/05/21 09:30:37;;;;;;;3.50;2.30;;;;;;;22.64;48.49;93758.16;5000542;28;20037;-91
2022/05/21 09:33:27;;;;;;;4.10;2.40;;;;;;;22.62;48.65;93755.91;5016152;28;20048;-93
2022/05/21 09:35:53;;;;;;;3.85;2.78;;;;;;;22.64;48.49;93750.63;5003450;28;20068;-86
2022/05/21 09:38:23;;;;;;;4.20;2.60;;;;;;;22.62;48.78;93744.91;5002028;28;20030;-88
2022/05/21 09:40:49;;;;;;;5.18;2.33;;;;;;;22.62;48.82;93750.41;5002222;28;20125;-93
2022/05/21 09:46:27;;;;;;;2.58;1.98;;;;;;;22.62;48.80;93752.41;5007742;28;20048;-88
2022/05/21 09:48:53;;;;;;;2.90;2.45;;;;;;;22.62;48.91;93757.94;5001513;28;20068;-88
2022/05/21 09:51:31;;;;;;;2.42;2.17;;;;;;;22.61;48.64;93740.66;5000504;28;20041;-85
2022/05/21 09:53:57;;;;;;;2.53;2.22;;;;;;;22.61;48.68;93748.91;5018041;28;20251;-89
2022/05/21 09:56:32;;;;;;;2.55;2.35;;;;;;;22.61;48.58;93757.19;5001364;28;20092;-86
2022/05/21 09:59:17;;;;;;;2.95;2.45;;;;;;;22.56;48.91;93753.25;5035968;28;20041;-87
2022/05/21 10:01:48;;;;;;;4.68;2.80;;;;;;;22.60;48.63;93758.47;5014978;28;20511;-87
2022/05/21 10:04:41;;;;;;;3.22;2.53;;;;;;;22.58;48.76;93756.22;5016961;28;20045;-86
2022/05/21 10:07:09;;;;;;;3.92;2.95;;;;;;;22.59;48.81;93756.97;5015336;28;20037;-86
2022/05/21 10:12:33;;;;;;;3.15;2.50;;;;;;;22.60;48.70;93758.47;4978006;28;20077;-93
2022/05/21 10:15:09;;;;;;;3.15;2.50;;;;;;;22.61;48.63;93764.72;4960988;28;20050;-88
2022/05/21 10:17:44;;;;;;;2.83;2.60;;;;;;;22.60;48.48;93763.22;4961606;28;20042;-88
2022/05/21 10:20:20;;;;;;;3.25;2.67;;;;;;;22.58;48.51;93750.72;4960322;28;20042;-91
2022/05/21 10:22:58;;;;;;;2.95;2.15;;;;;;;22.62;48.63;93760.69;4977424;28;20026;-91
2022/05/21 10:25:24;;;;;;;3.40;2.50;;;;;;;22.63;48.49;93754.66;4977207;28;20035;-89
2022/05/21 10:27:55;;;;;;;3.47;2.60;;;;;;;22.61;48.58;93748.19;4960603;28;20441;-88
2022/05/21 10:30:33;;;;;;;3.13;2.80;;;;;;;22.61;48.54;93761.97;4979096;28;20074;-92
2022/05/21 10:33:08;;;;;;;2.75;2.55;;;;;;;22.60;48.50;93765.97;4955579;28;20126;-91
2022/05/21 10:35:48;;;;;;;2.10;1.90;;;;;;;22.62;48.57;93755.19;4956002;28;20212;-86
2022/05/21 10:38:32;;;;;;;;;;;;;;;22.59;48.56;93751.47;4962368;28;20043;-85
2022/05/21 10:41:04;;;;;;;2.55;2.35;;;;;;;22.59;48.52;93762.47;4994116;28;19920;-87
2022/05/21 10:43:51;;;;;;;3.38;2.10;;;;;;;22.62;48.37;93755.19;5003261;28;20033;-87
2022/05/21 10:46:25;;;;;;;8.40;3.08;;;;;;;22.59;48.40;93765.25;5034479;28;20064;-91
2022/05/21 10:49:09;;;;;;;3.70;2.92;;;;;;;22.59;48.76;93756.97;5018548;28;20440;-87
2022/05/21 10:51:56;;;;;;;3.13;2.55;;;;;;;22.57;48.34;93759.50;5015591;28;20839;-88
2022/05/21 10:54:38;;;;;;;2.35;2.10;;;;;;;22.57;48.45;93757.50;5017032;28;20095;-95
2022/05/21 10:57:09;;;;;;;2.95;2.65;;;;;;;22.60;48.48;93752.19;5017301;28;20489;-90
2022/05/21 10:59:52;;;;;;;2.50;2.30;;;;;;;22.59;48.40;93737.69;5017044;28;20120;-87
2022/05/21 11:02:30;;;;;;;2.08;1.88;;;;;;;22.59;48.54;93754.22;5017410;28;20072;-87
2022/05/21 11:05:20;;;;;;;2.60;2.00;;;;;;;22.57;48.37;93740.22;5035019;28;20045;-88
2022/05/21 11:08:22;;;;;;;2.40;2.10;;;;;;;22.56;48.62;93742.25;5051100;28;20115;-93
2022/05/21 11:11:10;;;;;;;2.85;2.35;;;;;;;22.57;48.41;93751.25;5035914;28;20052;-90
2022/05/21 11:13:38;;;;;;;2.53;1.92;;;;;;;22.58;48.22;93733.44;5016201;28;20029;-88
2022/05/21 11:16:06;;;;;;;2.35;2.03;;;;;;;22.59;48.58;93748.72;5037752;28;20052;-88
2022/05/21 11:18:50;;;;;;;2.50;2.30;;;;;;;22.58;48.42;93736.19;5054809;28;20040;-87
2022/05/21 11:21:19;;;;;;;3.55;2.20;;;;;;;22.58;48.36;93747.22;5037285;28;20032;-93
2022/05/21 11:23:51;;;;;;;2.00;1.80;;;;;;;22.56;48.35;93736.72;5037854;28;20037;-86
2022/05/21 11:26:39;;;;;;;2.20;2.00;;;;;;;22.56;48.47;93741.50;5051859;28;20559;-94
2022/05/21 11:29:24;;;;;;;2.00;1.80;;;;;;;22.56;48.48;93741.50;5017996;28;20052;-92
2022/05/21 11:37:25;;;;;;;3.28;2.20;;;;;;;22.57;48.22;93721.69;5020020;28;20091;-92
2022/05/21 11:39:54;;;;;;;4.78;2.97;;;;;;;22.57;47.95;93735.47;5016999;28;20038;-87
2022/05/21 11:42:24;;;;;;;2.60;2.40;;;;;;;22.57;48.57;93734.72;5017410;28;20048;-91
2022/05/21 11:44:56;;;;;;;;;;;;;;;22.56;48.10;93724.97;5033094;28;20038;-86
2022/05/21 11:47:21;;;;;;;2.25;1.80;;;;;;;22.58;48.17;93728.69;5035492;28;19917;-92
2022/05/21 11:50:02;;;;;;;2.22;2.03;;;;;;;22.56;48.28;93730.47;5036798;28;20403;-89
2022/05/21 11:52:31;;;;;;;2.28;2.08;;;;;;;22.58;48.19;93733.44;5035677;28;20037;-90
2022/05/21 11:54:58;;;;;;;2.35;2.15;;;;;;;22.57;48.14;93732.69;5034956;28;20500;-86
2022/05/21 11:57:36;;;;;;;2.13;1.92;;;;;;;22.56;48.19;93727.72;5018706;28;20076;-91
2022/05/21 12:00:18;;;;;;;2.15;1.90;;;;;;;22.56;48.13;93722.94;5015385;28;20101;-86
2022/05/21 12:02:59;;;;;;;1.90;1.80;;;;;;;22.55;48.33;93724.22;4999603;28;20149;-90
2022/05/21 12:05:41;;;;;;;2.17;1.98;;;;;;;22.57;48.13;93704.41;5014852;28;20818;-86
2022/05/21 12:08:15;;;;;;;2.22;2.03;;;;;;;22.58;47.92;93720.41;5015509;28;20042;-86
2022/05/21 12:11:06;;;;;;;2.65;1.83;;;;;;;22.57;48.03;93707.16;5018839;28;20050;-92
2022/05/21 12:13:34;;;;;;;1.98;1.80;;;;;;;22.59;48.18;93707.38;5035366;28;20047;-91
2022/05/21 12:16:00;;;;;;;2.53;2.20;;;;;;;22.60;48.18;93699.84;5034262;28;20045;-91
2022/05/21 12:18:28;;;;;;;2.33;2.13;;;;;;;22.60;48.21;93703.34;5034493;28;20095;-91
2022/05/21 12:20:56;;;;;;;2.90;2.20;;;;;;;22.59;48.23;93704.63;5037942;28;20037;-88